Time;durP1;ratioP1;P1;durP2;ratioP2;P2;SDS_P1;SDS_P2;PMS_P1;PMS_P2;Temp;Humidity;BMP_temperature;BMP_pressure;BME280_temperature;BME280_humidity;BME280_pressure;Samples;Min_cycle;Max_cycle;Signal;HPM_P1;HPM_P2
2023/10/11 00:01:29;;;;;;;9.53;9.33;;;22.40;99.90;;;;;;5061701;28;20877;-66
2023/10/11 00:03:58;;;;;;;9.57;9.30;;;22.40;99.90;;;;;;5062201;28;20486;-67
2023/10/11 00:06:26;;;;;;;8.53;8.33;;;22.40;99.90;;;;;;5060098;28;20561;-67
2023/10/11 00:08:53;;;;;;;9.40;9.20;;;22.40;99.90;;;;;;5059221;28;20444;-67
2023/10/11 00:11:27;;;;;;;9.00;8.80;;;22.40;99.90;;;;;;5060331;28;20454;-66
2023/10/11 00:13:55;;;;;;;9.80;9.50;;;22.40;99.90;;;;;;5062187;28;20471;-66
2023/10/11 00:16:23;;;;;;;8.80;8.60;;;22.40;99.90;;;;;;5060548;28;20471;-71
2023/10/11 00:18:51;;;;;;;10.57;10.17;;;22.30;99.90;;;;;;5059005;28;20518;-69
2023/10/11 00:21:18;;;;;;;11.50;10.70;;;22.40;99.90;;;;;;5059708;28;20520;-72
2023/10/11 00:23:48;;;;;;;11.27;10.77;;;22.40;99.90;;;;;;5062353;28;20536;-70
2023/10/11 00:26:16;;;;;;;11.43;10.83;;;22.40;99.90;;;;;;5061594;28;20471;-75
2023/10/11 00:28:43;;;;;;;10.07;9.77;;;22.40;99.90;;;;;;5058950;28;20444;-74
2023/10/11 00:31:18;;;;;;;10.03;9.57;;;22.50;99.90;;;;;;5062344;28;20511;-73
2023/10/11 00:33:46;;;;;;;10.80;10.30;;;22.50;99.90;;;;;;5055425;28;20460;-73
2023/10/11 00:36:15;;;;;;;10.23;9.80;;;22.60;99.90;;;;;;5062607;28;21003;-71
2023/10/11 00:38:48;;;;;;;10.67;10.00;;;22.60;99.90;;;;;;5065779;28;20956;-73
2023/10/11 00:41:19;;;;;;;10.53;10.10;;;22.60;99.90;;;;;;5065291;28;20447;-74
2023/10/11 00:43:54;;;;;;;10.77;10.30;;;22.60;99.90;;;;;;5062204;28;20459;-72
2023/10/11 00:46:29;;;;;;;11.60;10.90;;;22.50;99.90;;;;;;5063338;28;20479;-71
2023/10/11 00:49:05;;;;;;;12.23;11.70;;;22.50;99.90;;;;;;5065105;28;20435;-71
2023/10/11 00:51:36;;;;;;;10.67;10.27;;;22.40;99.90;;;;;;5062455;28;20447;-71
2023/10/11 00:56:48;;;;;;;10.70;10.30;;;22.40;99.90;;;;;;5055315;28;20483;-70
2023/10/11 00:59:22;;;;;;;11.47;10.87;;;22.30;99.90;;;;;;5062370;28;20445;-71
2023/10/11 01:01:55;;;;;;;11.23;10.83;;;22.30;99.90;;;;;;5064747;28;20457;-72
2023/10/11 01:04:34;;;;;;;10.57;10.27;;;22.30;99.90;;;;;;5063682;28;20463;-72
2023/10/11 01:07:02;;;;;;;10.87;10.37;;;22.30;99.90;;;;;;5061254;28;20482;-72
2023/10/11 01:09:37;;;;;;;10.80;10.30;;;22.30;99.90;;;;;;5064095;28;20523;-72
2023/10/11 01:12:06;;;;;;;10.63;10.33;;;22.30;99.90;;;;;;5065234;28;20455;-72
2023/10/11 01:14:56;;;;;;;10.40;10.00;;;22.20;99.90;;;;;;5061600;28;20468;-70
2023/10/11 01:17:26;;;;;;;10.77;10.30;;;22.20;99.90;;;;;;5063046;28;20447;-71
2023/10/11 01:19:53;;;;;;;11.00;10.50;;;22.20;99.90;;;;;;5065207;28;20800;-71
2023/10/11 01:22:26;;;;;;;11.27;10.50;;;22.20;99.90;;;;;;5063696;28;20458;-71
2023/10/11 01:24:58;;;;;;;10.70;10.30;;;22.20;99.90;;;;;;5061361;28;20450;-71
2023/10/11 01:27:30;;;;;;;10.97;10.47;;;22.20;99.90;;;;;;5062933;28;20483;-71
2023/10/11 01:29:58;;;;;;;10.70;10.30;;;22.20;99.90;;;;;;5064255;28;20802;-71
2023/10/11 01:32:27;;;;;;;11.80;11.30;;;22.10;99.90;;;;;;5063149;28;20821;-72
2023/10/11 01:34:56;;;;;;;10.80;10.30;;;22.10;99.90;;;;;;5061281;28;20543;-70
2023/10/11 01:37:26;;;;;;;11.90;11.40;;;22.20;99.90;;;;;;5061732;28;21027;-71
2023/10/11 01:39:54;;;;;;;11.20;10.60;;;22.10;99.90;;;;;;5063667;28;20521;-71
2023/10/11 01:42:23;;;;;;;11.03;10.53;;;22.10;99.90;;;;;;5060866;28;20447;-71
2023/10/11 01:44:50;;;;;;;11.17;10.67;;;22.10;99.90;;;;;;5060722;28;20468;-71
2023/10/11 01:47:19;;;;;;;11.60;11.10;;;22.10;99.90;;;;;;5061369;28;21045;-71
2023/10/11 01:49:47;;;;;;;11.10;10.70;;;22.10;99.90;;;;;;5064650;28;20975;-71
2023/10/11 01:52:17;;;;;;;10.97;10.57;;;22.10;99.90;;;;;;5064374;28;21064;-71
2023/10/11 01:54:48;;;;;;;10.53;10.13;;;22.10;99.90;;;;;;5044300;28;20465;-71
2023/10/11 01:57:19;;;;;;;10.23;9.67;;;22.00;99.90;;;;;;5057301;28;20472;-70
2023/10/11 01:59:49;;;;;;;11.10;10.60;;;22.10;99.90;;;;;;5060833;28;20447;-72
2023/10/11 02:02:17;;;;;;;10.97;10.53;;;22.10;99.90;;;;;;5036869;28;20955;-70
2023/10/11 02:04:47;;;;;;;12.47;11.67;;;22.00;99.90;;;;;;5052847;28;20487;-72
2023/10/11 02:07:14;;;;;;;11.03;10.63;;;22.00;99.90;;;;;;5060780;28;20504;-71
2023/10/11 02:09:43;;;;;;;10.77;10.40;;;22.00;99.90;;;;;;5052098;28;20436;-72
2023/10/11 02:12:17;;;;;;;10.77;10.37;;;22.00;99.90;;;;;;5056570;28;20455;-71
2023/10/11 02:14:45;;;;;;;11.13;10.47;;;22.00;99.90;;;;;;5039628;28;20468;-71
2023/10/11 02:17:17;;;;;;;10.70;10.23;;;22.00;99.90;;;;;;5063748;28;20531;-72
2023/10/11 02:19:53;;;;;;;11.00;10.60;;;22.00;99.90;;;;;;5060662;28;20901;-70
2023/10/11 02:22:24;;;;;;;10.50;9.97;;;22.00;99.90;;;;;;5041624;28;20506;-71
2023/10/11 02:24:52;;;;;;;13.27;12.40;;;22.00;99.90;;;;;;5053350;28;20521;-70
2023/10/11 02:27:33;;;;;;;11.87;11.37;;;22.00;99.90;;;;;;5061279;28;20476;-71
2023/10/11 02:30:07;;;;;;;10.73;10.33;;;22.00;99.90;;;;;;5056758;28;20936;-71
2023/10/11 02:32:38;;;;;;;10.67;10.27;;;21.90;99.90;;;;;;5058113;28;20456;-71
2023/10/11 02:35:13;;;;;;;10.73;10.40;;;21.90;99.90;;;;;;5063556;28;20451;-71
2023/10/11 02:37:45;;;;;;;11.20;10.70;;;21.90;99.90;;;;;;5060168;28;20436;-71
2023/10/11 02:40:16;;;;;;;10.60;10.20;;;21.90;99.90;;;;;;5053175;28;20457;-71
2023/10/11 02:42:51;;;;;;;11.67;11.20;;;21.90;99.90;;;;;;5060016;28;20448;-70
2023/10/11 02:45:26;;;;;;;10.90;10.43;;;21.90;99.90;;;;;;5059628;28;20467;-72
2023/10/11 02:48:02;;;;;;;12.17;11.60;;;21.90;99.90;;;;;;5062824;28;20471;-71
2023/10/11 02:50:36;;;;;;;11.47;10.97;;;21.90;99.90;;;;;;5048662;28;20547;-71
2023/10/11 02:53:21;;;;;;;12.73;12.13;;;21.90;99.90;;;;;;5062688;28;20454;-72
2023/10/11 02:55:56;;;;;;;10.47;10.17;;;21.90;99.90;;;;;;5052156;28;20531;-72
2023/10/11 02:58:30;;;;;;;10.67;10.27;;;21.90;99.90;;;;;;5060704;28;20639;-70
2023/10/11 03:01:05;;;;;;;10.80;10.20;;;21.90;99.90;;;;;;5063696;28;20493;-70
2023/10/11 03:03:38;;;;;;;10.60;10.20;;;21.90;99.90;;;;;;5061590;28;20497;-72
2023/10/11 03:06:07;;;;;;;10.23;9.93;;;21.80;99.90;;;;;;5063207;28;20447;-72
2023/10/11 03:08:40;;;;;;;11.67;11.00;;;21.80;99.90;;;;;;5048852;28;20999;-71
2023/10/11 03:11:15;;;;;;;11.43;10.93;;;21.80;99.90;;;;;;5063103;28;20475;-70
2023/10/11 03:13:53;;;;;;;11.53;11.03;;;21.80;99.90;;;;;;5059106;28;20982;-71
2023/10/11 03:16:23;;;;;;;10.90;10.50;;;21.80;99.90;;;;;;5059453;28;20472;-71
2023/10/11 03:19:05;;;;;;;10.70;10.30;;;21.80;99.90;;;;;;5062998;28;20451;-70
2023/10/11 03:21:36;;;;;;;10.47;10.07;;;21.80;99.90;;;;;;5042855;28;20459;-70
2023/10/11 03:24:07;;;;;;;11.23;10.83;;;21.90;99.90;;;;;;5059434;28;20974;-71
2023/10/11 03:26:43;;;;;;;11.67;11.17;;;21.80;99.90;;;;;;5061355;28;20896;-70
2023/10/11 03:29:17;;;;;;;10.90;10.50;;;21.80;99.90;;;;;;5062570;28;20526;-71
2023/10/11 03:31:52;;;;;;;11.00;10.50;;;21.80;99.90;;;;;;5051269;28;20452;-71
2023/10/11 03:34:29;;;;;;;11.83;11.43;;;21.80;99.90;;;;;;5059297;28;20456;-71
2023/10/11 03:36:59;;;;;;;10.80;10.30;;;21.80;99.90;;;;;;5062975;28;20799;-71
2023/10/11 03:39:39;;;;;;;10.47;10.07;;;21.80;99.90;;;;;;5055163;28;20451;-71
2023/10/11 03:42:13;;;;;;;10.57;10.20;;;21.80;99.90;;;;;;5058495;28;20455;-71
2023/10/11 03:44:47;;;;;;;11.80;11.10;;;21.80;99.90;;;;;;5062049;28;20511;-71
2023/10/11 03:47:15;;;;;;;11.43;10.93;;;21.80;99.90;;;;;;5062778;28;20818;-71
2023/10/11 03:49:51;;;;;;;12.50;11.70;;;21.80;99.90;;;;;;5053444;28;20444;-71
2023/10/11 03:52:22;;;;;;;12.63;12.13;;;21.80;99.90;;;;;;5059243;28;20857;-71
2023/10/11 03:54:53;;;;;;;13.20;12.70;;;21.80;99.90;;;;;;5051489;28;20460;-73
2023/10/11 03:57:20;;;;;;;12.37;11.77;;;21.80;99.90;;;;;;5059378;28;20447;-73
2023/10/11 03:59:51;;;;;;;12.30;11.80;;;21.80;99.90;;;;;;5051233;28;20914;-73
2023/10/11 04:02:19;;;;;;;12.13;11.70;;;21.80;99.90;;;;;;5059121;28;20811;-74
2023/10/11 04:04:49;;;;;;;13.10;12.47;;;21.80;99.90;;;;;;5060353;28;20459;-74
2023/10/11 04:07:17;;;;;;;13.63;13.10;;;21.80;99.90;;;;;;5060060;28;20472;-74
2023/10/11 04:09:46;;;;;;;12.40;11.83;;;21.80;99.90;;;;;;5059076;28;20447;-74
2023/10/11 04:12:14;;;;;;;12.93;12.43;;;21.80;99.90;;;;;;5066216;28;20446;-73
2023/10/11 04:14:44;;;;;;;13.20;12.70;;;21.70;99.90;;;;;;5063118;28;21021;-73
2023/10/11 04:17:24;;;;;;;12.50;12.00;;;21.80;99.90;;;;;;5064477;28;20898;-73
2023/10/11 04:19:52;;;;;;;14.17;13.57;;;21.70;99.90;;;;;;5055335;28;20562;-73
2023/10/11 04:22:23;;;;;;;12.80;12.10;;;21.70;99.90;;;;;;5062421;28;20483;-73
2023/10/11 04:24:53;;;;;;;12.40;12.00;;;21.80;99.90;;;;;;5054877;28;20467;-74
2023/10/11 04:30:24;;;;;;;13.60;13.10;;;21.70;99.90;;;;;;4992878;28;20431;-74
2023/10/11 04:32:56;;;;;;;12.47;11.93;;;21.70;99.90;;;;;;5043069;28;20550;-74
2023/10/11 04:35:25;;;;;;;12.80;12.30;;;21.70;99.90;;;;;;5062665;28;20440;-74
2023/10/11 04:37:57;;;;;;;12.60;12.20;;;21.70;99.90;;;;;;5065916;28;20531;-73
2023/10/11 04:40:38;;;;;;;12.47;11.97;;;21.70;99.90;;;;;;5062647;28;20943;-74
2023/10/11 04:43:08;;;;;;;12.20;11.70;;;21.70;99.90;;;;;;5065585;28;20513;-74
2023/10/11 04:45:44;;;;;;;12.60;12.10;;;21.70;99.90;;;;;;5063777;28;20508;-73
2023/10/11 04:48:14;;;;;;;13.53;12.93;;;21.70;99.90;;;;;;5062071;28;20544;-74
2023/10/11 04:50:45;;;;;;;12.10;11.60;;;21.70;99.90;;;;;;5064935;28;20444;-71
2023/10/11 04:53:17;;;;;;;12.27;11.87;;;21.70;99.90;;;;;;5065504;28;20467;-73
2023/10/11 04:55:46;;;;;;;11.13;10.73;;;21.70;99.90;;;;;;5062439;28;20459;-73
2023/10/11 04:58:38;;;;;;;11.83;11.33;;;21.70;99.90;;;;;;5060454;28;20449;-72
2023/10/11 05:01:02;;;;;;;11.60;11.10;;;21.70;99.90;;;;;;5055625;28;20428;-73
2023/10/11 05:03:37;;;;;;;13.87;13.27;;;21.70;99.90;;;;;;5062557;28;21232;-74
2023/10/11 05:06:13;;;;;;;13.00;12.40;;;21.70;99.90;;;;;;5065311;28;20474;-72
2023/10/11 05:08:54;;;;;;;12.43;12.03;;;21.70;99.90;;;;;;5058392;28;20476;-74
2023/10/11 05:11:32;;;;;;;15.00;14.30;;;21.70;99.90;;;;;;5065334;28;20454;-73
2023/10/11 05:14:10;;;;;;;13.30;12.80;;;21.70;99.90;;;;;;5054822;28;20470;-73
2023/10/11 05:16:44;;;;;;;14.47;13.80;;;21.60;99.90;;;;;;5062757;28;20461;-74
2023/10/11 05:19:20;;;;;;;14.30;13.70;;;21.70;99.90;;;;;;5055218;28;20922;-74
2023/10/11 05:21:52;;;;;;;13.53;12.77;;;21.60;99.90;;;;;;5053743;28;20463;-73
2023/10/11 05:24:43;;;;;;;13.70;12.90;;;21.60;99.90;;;;;;5061464;28;20468;-73
2023/10/11 05:27:12;;;;;;;13.80;13.20;;;21.60;99.90;;;;;;5062017;28;20486;-72
2023/10/11 05:30:06;;;;;;;13.17;12.77;;;21.60;99.90;;;;;;5062844;28;20537;-74
2023/10/11 05:32:32;;;;;;;12.73;12.33;;;21.60;99.90;;;;;;5062455;28;20537;-73
2023/10/11 05:35:19;;;;;;;12.90;12.40;;;21.70;99.90;;;;;;5064679;28;20435;-73
2023/10/11 05:51:30;;;;;;;12.50;12.00;;;21.60;99.90;;;;;;5063807;28;20467;-70
2023/10/11 05:54:00;;;;;;;13.77;13.23;;;21.60;99.90;;;;;;5060725;28;20487;-71
2023/10/11 05:56:33;;;;;;;11.57;11.17;;;21.60;99.90;;;;;;5060813;28;20808;-72
2023/10/11 05:59:03;;;;;;;11.90;11.50;;;21.60;99.90;;;;;;5054206;28;20527;-71
2023/10/11 06:01:34;;;;;;;11.90;11.30;;;21.60;99.90;;;;;;5061462;28;20444;-71
2023/10/11 06:04:03;;;;;;;13.60;13.10;;;21.60;99.90;;;;;;5064001;28;20460;-71
2023/10/11 06:06:38;;;;;;;15.37;14.50;;;21.70;99.90;;;;;;5062893;28;20483;-71
2023/10/11 06:09:08;;;;;;;16.03;14.73;;;21.70;99.90;;;;;;5060400;28;20476;-70
2023/10/11 06:11:38;;;;;;;17.33;16.23;;;21.70;99.90;;;;;;5061896;28;20440;-71
2023/10/11 06:14:07;;;;;;;16.53;15.23;;;21.70;99.90;;;;;;5064162;28;20460;-72
2023/10/11 06:16:37;;;;;;;16.80;14.77;;;21.80;99.90;;;;;;5062643;28;20439;-72
2023/10/11 06:19:18;;;;;;;21.20;17.30;;;21.80;99.90;;;;;;5033341;28;20445;-72
2023/10/11 06:21:58;;;;;;;24.23;17.07;;;21.90;99.90;;;;;;5044183;28;20463;-72
2023/10/11 06:24:26;;;;;;;18.27;16.43;;;22.00;99.90;;;;;;5055645;28;21277;-73
2023/10/11 06:26:53;;;;;;;16.50;15.10;;;22.00;99.90;;;;;;5049519;28;20444;-71
2023/10/11 06:29:26;;;;;;;18.63;16.80;;;22.00;99.90;;;;;;5056079;28;20962;-69
2023/10/11 06:31:54;;;;;;;20.17;16.20;;;22.10;99.90;;;;;;5052194;28;20448;-69
2023/10/11 06:34:27;;;;;;;17.00;15.60;;;22.10;99.90;;;;;;5034830;28;20459;-76
2023/10/11 06:37:00;;;;;;;18.40;16.70;;;22.10;99.90;;;;;;5039031;28;20466;-75
2023/10/11 06:42:21;;;;;;;18.60;16.70;;;22.10;99.90;;;;;;5059989;28;20482;-76
2023/10/11 06:44:52;;;;;;;17.53;16.43;;;22.00;99.90;;;;;;5062667;28;20466;-76
2023/10/11 06:47:21;;;;;;;18.40;16.57;;;22.00;99.90;;;;;;5063475;28;20439;-76
2023/10/11 06:49:55;;;;;;;16.50;14.93;;;22.00;99.90;;;;;;5060155;28;20974;-75
2023/10/11 06:52:32;;;;;;;17.03;15.83;;;22.00;99.90;;;;;;5059811;28;20856;-75
2023/10/11 06:55:13;;;;;;;17.10;15.93;;;22.00;99.90;;;;;;5052326;28;21018;-76
2023/10/11 06:57:45;;;;;;;18.93;16.57;;;22.00;99.90;;;;;;5061439;28;20444;-75
2023/10/11 07:00:21;;;;;;;18.20;16.87;;;22.00;99.90;;;;;;5063142;28;20876;-76
2023/10/11 07:02:49;;;;;;;19.93;18.03;;;22.00;99.90;;;;;;5042090;28;20459;-76
2023/10/11 07:05:19;;;;;;;18.57;16.73;;;22.00;99.90;;;;;;5059471;28;20483;-76
2023/10/11 07:07:52;;;;;;;17.90;16.40;;;22.00;99.90;;;;;;5062120;28;20484;-76
2023/10/11 07:10:29;;;;;;;17.53;16.33;;;22.00;99.90;;;;;;5062988;28;20475;-76
2023/10/11 07:13:07;;;;;;;19.20;17.90;;;21.90;99.90;;;;;;5050057;28;20463;-75
2023/10/11 07:15:43;;;;;;;17.47;16.17;;;21.90;99.90;;;;;;5060385;28;20806;-76
2023/10/11 07:18:21;;;;;;;18.50;16.90;;;21.90;99.90;;;;;;5062610;28;20467;-76
2023/10/11 07:20:58;;;;;;;17.80;16.47;;;21.90;99.90;;;;;;5060019;28;20439;-76
2023/10/11 07:23:46;;;;;;;16.80;16.00;;;21.90;99.90;;;;;;5059287;28;21203;-76
2023/10/11 07:29:12;;;;;;;17.10;16.10;;;21.90;99.90;;;;;;5052722;28;20464;-76
2023/10/11 07:31:48;;;;;;;17.27;15.90;;;21.90;99.90;;;;;;5060991;28;20440;-75
2023/10/11 07:34:18;;;;;;;16.43;15.53;;;21.90;99.90;;;;;;5062635;28;20473;-76
2023/10/11 07:36:48;;;;;;;17.90;16.90;;;21.90;99.90;;;;;;5060426;28;20539;-75
2023/10/11 07:39:25;;;;;;;18.03;16.57;;;21.90;99.90;;;;;;5061635;28;20437;-75
2023/10/11 07:42:00;;;;;;;16.83;15.80;;;21.90;99.90;;;;;;5066509;28;20443;-76
2023/10/11 07:44:30;;;;;;;20.40;19.20;;;21.90;99.90;;;;;;5065884;28;20466;-76
2023/10/11 07:46:57;;;;;;;18.97;17.93;;;21.90;99.90;;;;;;5055466;28;20444;-75
2023/10/11 07:49:25;;;;;;;19.17;18.03;;;21.90;99.90;;;;;;5063320;28;20511;-75
2023/10/11 07:51:58;;;;;;;15.97;14.90;;;21.90;99.90;;;;;;5066119;28;20955;-76
2023/10/11 07:54:26;;;;;;;18.50;17.10;;;21.90;99.90;;;;;;5066413;28;20459;-76
2023/10/11 07:56:57;;;;;;;17.30;16.30;;;21.90;99.90;;;;;;5063239;28;20475;-75
2023/10/11 07:59:26;;;;;;;18.30;17.07;;;21.90;99.90;;;;;;5063100;28;20440;-76
2023/10/11 08:01:54;;;;;;;15.77;14.60;;;21.90;99.90;;;;;;5066103;28;20522;-76
2023/10/11 08:04:22;;;;;;;17.00;15.87;;;21.90;99.90;;;;;;5066089;28;20942;-76
2023/10/11 08:06:52;;;;;;;15.77;15.07;;;21.90;99.90;;;;;;5063542;28;20988;-76
2023/10/11 08:09:19;;;;;;;16.37;15.47;;;21.90;99.90;;;;;;5062931;28;20562;-76
2023/10/11 08:11:52;;;;;;;16.50;15.60;;;21.90;99.90;;;;;;5064945;28;20897;-75
2023/10/11 08:14:22;;;;;;;15.97;15.17;;;21.90;99.90;;;;;;5066076;28;20593;-76
2023/10/11 08:16:50;;;;;;;15.80;15.10;;;21.90;99.90;;;;;;5063559;28;20451;-76
2023/10/11 08:19:17;;;;;;;17.23;16.23;;;21.90;99.90;;;;;;5062765;28;20436;-76
2023/10/11 08:21:54;;;;;;;17.33;16.30;;;21.90;99.90;;;;;;5064237;28;20476;-75
2023/10/11 08:24:24;;;;;;;17.00;16.10;;;21.90;99.90;;;;;;5065748;28;20829;-76
2023/10/11 08:26:53;;;;;;;18.50;17.50;;;21.90;99.90;;;;;;5063062;28;20448;-75
2023/10/11 08:29:29;;;;;;;17.40;16.20;;;21.90;99.90;;;;;;5062526;28;20479;-76
2023/10/11 08:31:58;;;;;;;17.00;16.03;;;21.90;99.90;;;;;;5065671;28;20532;-75
2023/10/11 08:34:26;;;;;;;16.77;15.90;;;21.90;99.90;;;;;;5065668;28;20462;-75
2023/10/11 08:36:55;;;;;;;16.50;15.60;;;21.90;99.90;;;;;;5062792;28;20817;-75
2023/10/11 08:39:27;;;;;;;15.77;15.03;;;21.90;99.90;;;;;;5062191;28;20543;-75
2023/10/11 08:41:58;;;;;;;16.37;15.57;;;21.90;99.90;;;;;;5065111;28;20448;-75
2023/10/11 08:44:28;;;;;;;16.60;15.77;;;21.90;99.90;;;;;;5065526;28;20509;-76
2023/10/11 08:46:57;;;;;;;16.63;15.80;;;21.80;99.90;;;;;;5062333;28;20926;-75
2023/10/11 08:49:24;;;;;;;18.13;17.33;;;21.80;99.90;;;;;;5062354;28;20483;-75
2023/10/11 08:51:59;;;;;;;17.67;16.67;;;21.90;99.90;;;;;;5063844;28;20947;-76
2023/10/11 08:54:28;;;;;;;15.73;15.03;;;21.90;99.90;;;;;;5065358;28;20467;-76
2023/10/11 08:56:57;;;;;;;17.87;16.93;;;21.90;99.90;;;;;;5062277;28;20449;-76
2023/10/11 08:59:26;;;;;;;15.87;14.87;;;21.90;99.90;;;;;;5062048;28;20444;-76
2023/10/11 09:01:55;;;;;;;17.00;16.00;;;21.80;99.90;;;;;;5064500;28;20501;-76
2023/10/11 09:04:26;;;;;;;16.23;15.20;;;21.90;99.90;;;;;;5065045;28;20473;-76
2023/10/11 09:06:57;;;;;;;16.60;15.67;;;21.80;99.90;;;;;;5062246;28;20479;-76
2023/10/11 09:09:39;;;;;;;16.33;15.53;;;21.90;99.90;;;;;;5061691;28;20482;-76
2023/10/11 09:12:27;;;;;;;17.30;16.30;;;21.80;99.90;;;;;;5054670;28;20836;-76
2023/10/11 09:15:00;;;;;;;16.20;15.50;;;21.80;99.90;;;;;;5064480;28;20597;-76
2023/10/11 09:17:27;;;;;;;15.57;14.80;;;21.90;99.90;;;;;;5065021;28;20445;-76
2023/10/11 09:19:58;;;;;;;16.13;15.43;;;21.80;99.90;;;;;;5061953;28;20440;-76
2023/10/11 09:22:25;;;;;;;17.30;16.30;;;21.80;99.90;;;;;;5061330;28;20458;-76
2023/10/11 09:25:05;;;;;;;16.60;15.30;;;21.80;99.90;;;;;;5063631;28;20569;-75
2023/10/11 09:27:48;;;;;;;16.30;15.50;;;21.90;99.90;;;;;;5064952;28;20497;-76
2023/10/11 09:30:19;;;;;;;15.77;15.17;;;21.80;99.90;;;;;;5055460;28;20436;-76
2023/10/11 09:32:48;;;;;;;15.47;14.87;;;21.80;99.90;;;;;;5062783;28;20444;-76
2023/10/11 09:35:23;;;;;;;16.33;15.53;;;21.80;99.90;;;;;;5064628;28;20443;-75
2023/10/11 09:37:53;;;;;;;15.60;14.77;;;21.80;99.90;;;;;;5062244;28;20446;-76
2023/10/11 09:40:28;;;;;;;15.67;15.07;;;21.80;99.90;;;;;;5061214;28;20444;-75
2023/10/11 09:43:01;;;;;;;17.40;16.57;;;21.80;99.90;;;;;;5064000;28;20477;-76
2023/10/11 09:45:41;;;;;;;15.57;14.90;;;21.80;99.90;;;;;;5064548;28;20435;-76
2023/10/11 09:48:10;;;;;;;15.43;14.73;;;21.80;99.90;;;;;;5054024;28;20436;-76
2023/10/11 09:50:41;;;;;;;15.23;14.53;;;21.80;99.90;;;;;;5061207;28;20479;-76
2023/10/11 09:53:10;;;;;;;15.50;14.80;;;21.80;99.90;;;;;;5064053;28;20814;-76
2023/10/11 09:55:42;;;;;;;15.93;15.27;;;21.80;99.90;;;;;;5063844;28;20471;-75
2023/10/11 09:58:22;;;;;;;17.97;16.73;;;21.80;99.90;;;;;;5060779;28;20483;-75
2023/10/11 10:00:58;;;;;;;14.90;14.23;;;21.80;99.90;;;;;;5062871;28;20486;-75
2023/10/11 10:03:25;;;;;;;14.27;13.67;;;21.80;99.90;;;;;;5062911;28;20462;-76
2023/10/11 10:06:18;;;;;;;14.83;14.23;;;21.80;99.90;;;;;;5061671;28;20475;-77
2023/10/11 10:08:47;;;;;;;16.53;15.80;;;21.90;99.90;;;;;;5061829;28;20480;-75
2023/10/11 10:11:19;;;;;;;16.43;15.47;;;21.90;99.90;;;;;;5063924;28;20497;-75
2023/10/11 10:14:24;;;;;;;14.57;13.87;;;21.90;99.90;;;;;;5062117;28;20994;-76
2023/10/11 10:17:10;;;;;;;14.83;14.03;;;21.90;99.90;;;;;;5062403;28;20443;-76
2023/10/11 10:19:39;;;;;;;15.80;14.90;;;21.90;99.90;;;;;;5063521;28;20526;-75
2023/10/11 10:22:17;;;;;;;16.30;15.63;;;21.90;99.90;;;;;;5060262;28;20475;-76
2023/10/11 10:24:46;;;;;;;15.43;14.83;;;21.90;99.90;;;;;;5061253;28;20456;-75
2023/10/11 10:27:45;;;;;;;15.40;14.60;;;21.90;99.90;;;;;;5063750;28;20474;-75
2023/10/11 10:30:21;;;;;;;15.30;14.70;;;21.90;99.90;;;;;;5053464;28;21007;-76
2023/10/11 10:33:19;;;;;;;15.47;14.77;;;21.90;99.90;;;;;;5061731;28;20936;-75
2023/10/11 10:35:48;;;;;;;16.77;16.07;;;21.90;99.90;;;;;;5062126;28;20453;-75
2023/10/11 10:38:16;;;;;;;15.80;15.20;;;21.90;99.90;;;;;;5060093;28;20531;-75
2023/10/11 10:40:45;;;;;;;17.20;16.50;;;21.90;99.90;;;;;;5060808;28;20446;-76
2023/10/11 10:43:27;;;;;;;15.83;15.13;;;21.90;99.90;;;;;;5063114;28;20465;-75
2023/10/11 10:45:59;;;;;;;16.47;15.87;;;21.90;99.90;;;;;;5060872;28;20439;-76
2023/10/11 10:48:29;;;;;;;14.97;14.37;;;21.90;99.90;;;;;;5059870;28;20451;-75
2023/10/11 10:51:03;;;;;;;15.70;14.93;;;21.90;99.90;;;;;;5062577;28;20538;-76
2023/10/11 10:53:37;;;;;;;15.13;14.53;;;21.90;99.90;;;;;;5062983;28;20462;-75
2023/10/11 10:56:04;;;;;;;16.30;15.70;;;21.90;99.90;;;;;;5051915;28;20441;-75
2023/10/11 10:58:31;;;;;;;14.80;14.30;;;21.90;99.90;;;;;;5059850;28;20479;-74
2023/10/11 11:00:59;;;;;;;17.30;16.50;;;22.00;99.90;;;;;;5062599;28;20479;-76
2023/10/11 11:03:31;;;;;;;16.87;16.27;;;21.90;99.90;;;;;;5062960;28;20532;-76
2023/10/11 11:05:59;;;;;;;17.67;16.80;;;21.90;99.90;;;;;;5059981;28;20498;-76
2023/10/11 11:08:31;;;;;;;15.80;15.27;;;22.00;99.90;;;;;;5059636;28;20527;-75
2023/10/11 11:11:18;;;;;;;17.50;16.87;;;21.90;99.90;;;;;;5062413;28;20451;-76
2023/10/11 11:13:47;;;;;;;16.20;15.70;;;22.00;99.90;;;;;;5061200;28;20474;-76
2023/10/11 11:16:22;;;;;;;16.33;15.73;;;22.00;99.90;;;;;;5059549;28;20446;-76
2023/10/11 11:18:48;;;;;;;15.97;15.30;;;22.00;99.90;;;;;;5060979;28;20440;-76
2023/10/11 11:21:20;;;;;;;15.40;14.80;;;22.00;99.90;;;;;;5062810;28;20435;-76
2023/10/11 11:23:49;;;;;;;17.13;16.53;;;22.00;99.90;;;;;;5061083;28;20216;-76
2023/10/11 11:26:16;;;;;;;15.20;14.70;;;22.00;99.90;;;;;;5059434;28;20448;-76
2023/10/11 11:28:43;;;;;;;16.43;15.83;;;22.00;99.90;;;;;;5059894;28;20832;-75
2023/10/11 11:31:13;;;;;;;16.63;16.03;;;22.00;99.90;;;;;;5062869;28;20443;-76
2023/10/11 11:34:05;;;;;;;15.37;14.87;;;22.00;99.90;;;;;;5062219;28;20854;-76
2023/10/11 11:36:35;;;;;;;15.80;15.20;;;22.00;99.90;;;;;;5059650;28;20499;-74
2023/10/11 11:39:25;;;;;;;14.83;14.33;;;22.00;99.90;;;;;;5062549;28;20518;-74
2023/10/11 11:41:52;;;;;;;15.33;14.73;;;22.00;99.90;;;;;;5060779;28;20794;-74
2023/10/11 11:44:21;;;;;;;15.83;15.13;;;22.00;99.90;;;;;;5058961;28;21000;-74
2023/10/11 11:46:50;;;;;;;16.93;16.27;;;22.00;99.90;;;;;;5060331;28;20475;-75
2023/10/11 11:49:21;;;;;;;16.07;15.27;;;22.00;99.90;;;;;;5062635;28;20471;-75
2023/10/11 11:51:50;;;;;;;15.80;15.30;;;22.00;99.90;;;;;;5061197;28;20443;-76
2023/10/11 11:54:19;;;;;;;15.30;14.80;;;22.00;99.90;;;;;;5058951;28;20468;-76
2023/10/11 11:56:45;;;;;;;16.60;15.90;;;22.00;99.90;;;;;;5059933;28;20462;-75
2023/10/11 11:59:18;;;;;;;15.03;14.43;;;22.00;99.90;;;;;;5062563;28;20439;-74
2023/10/11 12:01:49;;;;;;;15.40;14.90;;;22.00;99.90;;;;;;5061582;28;20530;-76
2023/10/11 12:04:23;;;;;;;16.60;16.00;;;22.10;99.90;;;;;;5058770;28;20468;-75
2023/10/11 12:06:49;;;;;;;16.20;15.50;;;22.10;99.90;;;;;;5059014;28;20443;-72
2023/10/11 12:09:21;;;;;;;15.30;14.90;;;22.10;99.90;;;;;;5059009;28;20476;-72
2023/10/11 12:11:53;;;;;;;17.43;16.73;;;22.10;99.90;;;;;;5060087;28;20651;-73
2023/10/11 12:14:23;;;;;;;16.17;15.60;;;22.10;99.90;;;;;;5062176;28;20528;-72
2023/10/11 12:16:50;;;;;;;15.73;15.13;;;22.10;99.90;;;;;;5060882;28;20444;-72
2023/10/11 12:19:18;;;;;;;14.77;14.20;;;22.10;99.90;;;;;;5058919;28;20447;-72
2023/10/11 12:21:45;;;;;;;14.93;14.43;;;22.10;99.90;;;;;;5059301;28;20452;-72
2023/10/11 12:24:12;;;;;;;16.27;15.77;;;22.10;99.90;;;;;;5062111;28;20490;-73
2023/10/11 12:26:43;;;;;;;15.57;14.97;;;22.10;99.90;;;;;;5064975;28;20942;-72
2023/10/11 12:29:12;;;;;;;16.17;15.57;;;22.10;99.90;;;;;;5054818;28;20471;-71
2023/10/11 12:31:39;;;;;;;15.73;15.13;;;22.10;99.90;;;;;;5070689;28;20447;-71
2023/10/11 12:34:09;;;;;;;15.10;14.60;;;22.10;99.90;;;;;;5062136;28;20491;-72
2023/10/11 12:36:39;;;;;;;15.30;14.80;;;22.10;99.90;;;;;;5062379;28;20518;-71
2023/10/11 12:39:08;;;;;;;14.30;13.80;;;22.10;99.90;;;;;;5054105;28;20447;-72
2023/10/11 12:41:36;;;;;;;15.17;14.67;;;22.10;99.90;;;;;;5062218;28;20525;-72
2023/10/11 12:44:04;;;;;;;15.97;15.37;;;22.10;99.90;;;;;;5064961;28;20463;-72
2023/10/11 12:46:31;;;;;;;15.97;15.27;;;22.10;99.90;;;;;;5065584;28;20440;-72
2023/10/11 12:48:58;;;;;;;15.37;14.77;;;22.20;99.90;;;;;;5063088;28;20475;-71
2023/10/11 12:51:25;;;;;;;16.77;16.17;;;22.20;99.90;;;;;;5062142;28;20472;-72
2023/10/11 12:53:54;;;;;;;15.83;15.30;;;22.20;99.90;;;;;;5063177;28;20922;-72
2023/10/11 12:56:23;;;;;;;16.17;15.67;;;22.20;99.90;;;;;;5065420;28;20485;-71
2023/10/11 12:58:52;;;;;;;15.87;15.27;;;22.20;99.90;;;;;;5064192;28;20964;-73
2023/10/11 13:01:26;;;;;;;16.10;15.40;;;22.20;99.90;;;;;;5061884;28;20459;-71
2023/10/11 13:04:05;;;;;;;15.00;14.40;;;22.20;99.90;;;;;;5061705;28;20559;-74
2023/10/11 13:06:36;;;;;;;15.57;15.03;;;22.20;99.90;;;;;;5068950;28;20443;-72
2023/10/11 13:09:13;;;;;;;14.43;14.00;;;22.20;99.90;;;;;;5062090;28;20962;-71
2023/10/11 13:11:44;;;;;;;15.10;14.60;;;22.20;99.90;;;;;;5061738;28;20444;-71
2023/10/11 13:14:11;;;;;;;14.90;14.40;;;22.20;99.90;;;;;;5053911;28;20471;-72
2023/10/11 13:16:40;;;;;;;15.07;14.57;;;22.20;99.90;;;;;;5061751;28;20466;-72
2023/10/11 13:19:08;;;;;;;14.90;14.40;;;22.20;99.90;;;;;;5064819;28;20435;-71